Time;durP1;ratioP1;P1;durP2;ratioP2;P2;SDS_P1;SDS_P2;PMS_P1;PMS_P2;Temp;Humidity;BMP_temperature;BMP_pressure;BME280_temperature;BME280_humidity;BME280_pressure;Samples;Min_cycle;Max_cycle;Signal;HPM_P1;HPM_P2
2023/07/23 00:00:26;;;;;;;8.18;3.75;;;;;;;;;;5015542;28;20029;-80
2023/07/23 00:02:51;;;;;;;11.68;3.80;;;;;;;;;;5015367;28;20034;-81
2023/07/23 00:05:17;;;;;;;6.43;3.55;;;;;;;;;;5014378;28;20022;-82
2023/07/23 00:07:43;;;;;;;9.50;3.75;;;;;;;;;;5015602;28;20038;-80
2023/07/23 00:10:11;;;;;;;7.82;3.30;;;;;;;;;;5015241;28;20493;-80
2023/07/23 00:12:37;;;;;;;7.25;3.30;;;;;;;;;;5015444;28;20029;-81
2023/07/23 00:15:03;;;;;;;5.65;2.97;;;;;;;;;;4997884;28;20030;-81
2023/07/23 00:17:29;;;;;;;8.88;3.30;;;;;;;;;;5015586;28;20164;-81
2023/07/23 00:19:54;;;;;;;8.40;3.45;;;;;;;;;;4998105;28;20520;-81
2023/07/23 00:22:20;;;;;;;8.98;3.03;;;;;;;;;;5014139;28;20030;-80
2023/07/23 00:24:45;;;;;;;9.82;3.30;;;;;;;;;;5015259;28;20029;-82
2023/07/23 00:27:13;;;;;;;9.15;3.53;;;;;;;;;;5015159;28;20504;-80
2023/07/23 00:29:42;;;;;;;6.47;3.50;;;;;;;;;;5014169;28;20034;-81
2023/07/23 00:32:08;;;;;;;10.50;3.47;;;;;;;;;;5013907;28;20033;-80
2023/07/23 00:34:33;;;;;;;10.77;3.30;;;;;;;;;;5015298;28;20096;-81
2023/07/23 00:36:59;;;;;;;5.20;3.13;;;;;;;;;;5015167;28;20036;-82
2023/07/23 00:39:24;;;;;;;8.32;3.20;;;;;;;;;;5015654;28;20044;-81
2023/07/23 00:41:50;;;;;;;5.40;3.10;;;;;;;;;;5014313;28;20030;-81
2023/07/23 00:44:16;;;;;;;6.47;3.08;;;;;;;;;;4999007;28;20030;-80
2023/07/23 00:46:42;;;;;;;6.63;3.13;;;;;;;;;;5016753;28;20033;-82
2023/07/23 00:49:07;;;;;;;5.78;3.00;;;;;;;;;;5022174;28;20033;-78
2023/07/23 00:51:33;;;;;;;6.15;2.70;;;;;;;;;;5027110;28;20141;-78
2023/07/23 00:53:59;;;;;;;7.97;3.00;;;;;;;;;;5029260;28;20048;-80
2023/07/23 00:56:25;;;;;;;10.35;3.35;;;;;;;;;;5024001;28;20022;-80
2023/07/23 00:58:51;;;;;;;7.32;3.22;;;;;;;;;;5020241;28;20057;-80
2023/07/23 01:01:18;;;;;;;7.40;2.90;;;;;;;;;;5024209;28;20075;-79
2023/07/23 01:03:43;;;;;;;5.70;2.80;;;;;;;;;;5022858;28;20038;-80
2023/07/23 01:06:10;;;;;;;5.00;2.80;;;;;;;;;;5020121;28;20022;-81
2023/07/23 01:08:36;;;;;;;5.22;2.53;;;;;;;;;;5025844;28;20560;-81
2023/07/23 01:11:01;;;;;;;7.95;2.85;;;;;;;;;;5033639;28;20029;-80
2023/07/23 01:13:27;;;;;;;8.93;2.70;;;;;;;;;;5037778;28;20018;-79
2023/07/23 01:15:53;;;;;;;6.00;3.00;;;;;;;;;;5032462;28;20026;-80
2023/07/23 01:18:19;;;;;;;6.13;2.97;;;;;;;;;;5037002;28;20034;-79
2023/07/23 01:20:45;;;;;;;6.20;2.75;;;;;;;;;;5035405;28;20034;-79
2023/07/23 01:23:10;;;;;;;7.38;3.47;;;;;;;;;;5018471;28;20036;-82
2023/07/23 01:25:36;;;;;;;8.05;2.75;;;;;;;;;;5014145;28;20037;-80
2023/07/23 01:28:02;;;;;;;6.80;3.42;;;;;;;;;;5013299;28;20041;-82
2023/07/23 01:30:28;;;;;;;8.93;2.85;;;;;;;;;;5012773;28;20026;-81
2023/07/23 01:32:53;;;;;;;5.20;2.65;;;;;;;;;;5013106;28;20393;-80
2023/07/23 01:35:19;;;;;;;10.45;3.05;;;;;;;;;;4999281;28;20030;-80
2023/07/23 01:37:47;;;;;;;7.28;3.08;;;;;;;;;;5017965;28;20029;-81
2023/07/23 01:40:12;;;;;;;7.10;3.17;;;;;;;;;;5027749;28;20033;-80
2023/07/23 01:42:38;;;;;;;4.25;2.70;;;;;;;;;;5015536;28;20040;-79
2023/07/23 01:45:04;;;;;;;7.20;3.78;;;;;;;;;;5034349;28;20042;-81
2023/07/23 01:47:30;;;;;;;8.60;2.80;;;;;;;;;;5026952;28;20038;-80
2023/07/23 01:49:55;;;;;;;5.45;2.63;;;;;;;;;;5028408;28;20081;-80
2023/07/23 01:52:21;;;;;;;5.38;3.08;;;;;;;;;;5032664;28;20029;-80
2023/07/23 01:54:47;;;;;;;6.63;2.83;;;;;;;;;;5037365;28;20102;-80
2023/07/23 01:57:12;;;;;;;5.88;2.90;;;;;;;;;;5037736;28;20014;-80
2023/07/23 01:59:38;;;;;;;5.05;2.80;;;;;;;;;;5020143;28;20026;-80
2023/07/23 02:02:06;;;;;;;7.72;3.20;;;;;;;;;;5035078;28;20033;-80
2023/07/23 02:04:32;;;;;;;5.45;2.60;;;;;;;;;;5023929;28;20033;-80
2023/07/23 02:06:57;;;;;;;5.28;3.10;;;;;;;;;;5023689;28;20025;-81
2023/07/23 02:09:23;;;;;;;7.63;3.08;;;;;;;;;;5011481;28;20038;-79
2023/07/23 02:11:48;;;;;;;9.15;3.45;;;;;;;;;;5012052;28;20022;-80
2023/07/23 02:14:14;;;;;;;7.45;3.30;;;;;;;;;;5012256;28;20061;-80
2023/07/23 02:16:39;;;;;;;5.22;2.80;;;;;;;;;;4996067;28;20034;-80
2023/07/23 02:19:05;;;;;;;9.95;3.25;;;;;;;;;;5012567;28;20034;-79
2023/07/23 02:21:31;;;;;;;5.63;3.22;;;;;;;;;;4996258;28;20095;-79
2023/07/23 02:23:56;;;;;;;5.60;2.95;;;;;;;;;;5012411;28;20037;-79
2023/07/23 02:26:22;;;;;;;6.65;3.33;;;;;;;;;;5011880;28;20041;-81
2023/07/23 02:28:47;;;;;;;7.03;4.15;;;;;;;;;;5011397;28;20038;-80
2023/07/23 02:31:13;;;;;;;7.07;3.00;;;;;;;;;;5011326;28;20026;-80
2023/07/23 02:33:39;;;;;;;7.28;2.72;;;;;;;;;;5011797;28;20118;-80
2023/07/23 02:36:04;;;;;;;6.13;3.00;;;;;;;;;;4978951;28;20034;-80
2023/07/23 02:38:30;;;;;;;7.22;3.30;;;;;;;;;;5011357;28;20064;-80
2023/07/23 02:40:55;;;;;;;5.10;2.95;;;;;;;;;;5011500;28;20084;-79
2023/07/23 02:43:21;;;;;;;5.88;3.17;;;;;;;;;;5011600;28;20416;-80
2023/07/23 02:45:47;;;;;;;6.85;3.00;;;;;;;;;;5011188;28;20040;-81
2023/07/23 02:48:12;;;;;;;5.85;3.35;;;;;;;;;;5011327;28;20401;-80
2023/07/23 02:50:38;;;;;;;8.35;3.10;;;;;;;;;;4995553;28;20061;-78
2023/07/23 02:53:04;;;;;;;5.22;2.80;;;;;;;;;;5012533;28;20037;-79
2023/07/23 02:55:29;;;;;;;5.35;2.83;;;;;;;;;;5012341;28;20025;-79
2023/07/23 02:57:56;;;;;;;7.10;2.92;;;;;;;;;;5011176;28;20026;-79
2023/07/23 03:00:21;;;;;;;9.23;3.10;;;;;;;;;;5012407;28;20034;-80
2023/07/23 03:02:47;;;;;;;5.25;2.70;;;;;;;;;;5010997;28;20060;-80
2023/07/23 03:05:13;;;;;;;7.57;3.03;;;;;;;;;;4994610;28;20061;-79
2023/07/23 03:07:39;;;;;;;4.97;2.83;;;;;;;;;;5012146;28;20492;-81
2023/07/23 03:10:05;;;;;;;9.25;3.63;;;;;;;;;;5010957;28;20032;-81
2023/07/23 03:12:34;;;;;;;4.82;2.83;;;;;;;;;;5012359;28;20477;-80
2023/07/23 03:14:59;;;;;;;5.93;2.80;;;;;;;;;;5012487;28;20068;-80
2023/07/23 03:17:25;;;;;;;7.15;2.85;;;;;;;;;;5012057;28;20092;-80
2023/07/23 03:19:51;;;;;;;4.85;2.70;;;;;;;;;;5014814;28;20097;-79
2023/07/23 03:22:17;;;;;;;6.15;2.92;;;;;;;;;;5003024;28;20113;-79
2023/07/23 03:24:42;;;;;;;6.20;3.22;;;;;;;;;;5023113;28;20485;-80
2023/07/23 03:27:08;;;;;;;8.45;2.90;;;;;;;;;;5016182;28;20068;-81
2023/07/23 03:29:33;;;;;;;10.05;3.13;;;;;;;;;;5014882;28;20124;-80
2023/07/23 03:31:59;;;;;;;6.93;3.17;;;;;;;;;;5016391;28;20077;-80
2023/07/23 03:34:24;;;;;;;6.78;3.08;;;;;;;;;;5014853;28;20076;-80
2023/07/23 03:36:51;;;;;;;9.07;3.00;;;;;;;;;;4998801;28;20511;-81
2023/07/23 03:39:18;;;;;;;5.50;2.80;;;;;;;;;;5016123;28;20069;-81
2023/07/23 03:41:46;;;;;;;5.70;3.30;;;;;;;;;;4998568;28;20037;-79
2023/07/23 03:44:12;;;;;;;7.00;2.97;;;;;;;;;;5016285;28;20041;-80
2023/07/23 03:46:42;;;;;;;4.50;2.72;;;;;;;;;;5014754;28;20380;-80
2023/07/23 03:49:07;;;;;;;6.72;3.03;;;;;;;;;;5014722;28;20038;-80
2023/07/23 03:51:33;;;;;;;5.90;3.03;;;;;;;;;;5016084;28;20112;-79
2023/07/23 03:53:58;;;;;;;6.72;3.28;;;;;;;;;;5014876;28;20034;-80
2023/07/23 03:56:24;;;;;;;8.88;3.03;;;;;;;;;;5014566;28;20037;-80
2023/07/23 03:58:49;;;;;;;10.93;4.82;;;;;;;;;;5014365;28;20033;-80
2023/07/23 04:01:15;;;;;;;5.90;3.58;;;;;;;;;;5014770;28;20061;-80
2023/07/23 04:03:41;;;;;;;5.30;3.10;;;;;;;;;;5015903;28;20119;-80
2023/07/23 04:06:07;;;;;;;5.55;2.78;;;;;;;;;;4998507;28;20526;-80
2023/07/23 04:08:33;;;;;;;7.47;3.38;;;;;;;;;;5015607;28;20038;-80
2023/07/23 04:10:59;;;;;;;6.00;3.10;;;;;;;;;;5014379;28;20029;-81
2023/07/23 04:13:24;;;;;;;5.68;2.72;;;;;;;;;;5016054;28;20480;-80
2023/07/23 04:15:50;;;;;;;5.55;3.28;;;;;;;;;;5015574;28;20026;-80
2023/07/23 04:18:16;;;;;;;5.32;3.08;;;;;;;;;;4983034;28;20458;-80
2023/07/23 04:20:41;;;;;;;5.55;3.05;;;;;;;;;;5016828;28;20485;-80
2023/07/23 04:23:07;;;;;;;6.60;3.25;;;;;;;;;;5015800;28;20516;-79
2023/07/23 04:25:32;;;;;;;5.47;2.90;;;;;;;;;;5015279;28;20100;-79
2023/07/23 04:27:58;;;;;;;7.30;2.92;;;;;;;;;;5015687;28;20069;-80
2023/07/23 04:30:27;;;;;;;12.93;3.58;;;;;;;;;;5029255;28;20026;-80
2023/07/23 04:32:53;;;;;;;8.13;3.88;;;;;;;;;;5037877;28;20044;-79
2023/07/23 04:35:20;;;;;;;8.15;4.00;;;;;;;;;;5037707;28;20026;-79
2023/07/23 04:37:46;;;;;;;8.45;4.22;;;;;;;;;;5037417;28;20018;-80
2023/07/23 04:40:11;;;;;;;8.25;3.40;;;;;;;;;;5038920;28;20018;-80
2023/07/23 04:42:37;;;;;;;7.32;3.40;;;;;;;;;;5036959;28;20086;-79
2023/07/23 04:45:03;;;;;;;10.13;4.53;;;;;;;;;;5020313;28;20034;-81
2023/07/23 04:47:28;;;;;;;7.07;4.07;;;;;;;;;;5024360;28;20033;-79
2023/07/23 04:49:54;;;;;;;7.97;4.63;;;;;;;;;;5015658;28;20069;-80
2023/07/23 04:52:19;;;;;;;7.50;4.00;;;;;;;;;;5016366;28;20033;-80
2023/07/23 04:54:45;;;;;;;7.30;3.97;;;;;;;;;;4999127;28;20046;-80
2023/07/23 04:57:10;;;;;;;7.07;4.10;;;;;;;;;;5016488;28;20087;-80
2023/07/23 04:59:36;;;;;;;7.68;4.05;;;;;;;;;;4999144;28;20038;-80
2023/07/23 05:02:03;;;;;;;6.25;3.42;;;;;;;;;;5025511;23;20026;-76
2023/07/23 05:04:28;;;;;;;6.75;3.75;;;;;;;;;;5014154;28;20026;-74
2023/07/23 05:06:54;;;;;;;8.18;3.38;;;;;;;;;;5013414;28;20034;-75
2023/07/23 05:09:19;;;;;;;7.97;3.33;;;;;;;;;;4997208;28;20046;-75
2023/07/23 05:11:45;;;;;;;6.38;3.30;;;;;;;;;;5013243;28;20065;-76
2023/07/23 05:14:11;;;;;;;7.07;3.20;;;;;;;;;;5014660;28;20022;-76
2023/07/23 05:16:36;;;;;;;6.70;3.53;;;;;;;;;;5014154;28;20117;-76
2023/07/23 05:19:03;;;;;;;7.75;3.50;;;;;;;;;;5014456;28;20030;-76
2023/07/23 05:21:29;;;;;;;6.03;3.20;;;;;;;;;;5014264;28;20052;-76
2023/07/23 05:23:55;;;;;;;9.80;3.53;;;;;;;;;;4996839;28;20492;-77
2023/07/23 05:26:20;;;;;;;9.48;3.47;;;;;;;;;;5013922;28;20116;-75
2023/07/23 05:28:46;;;;;;;10.93;3.70;;;;;;;;;;4980343;28;20061;-77
2023/07/23 05:31:11;;;;;;;5.38;2.95;;;;;;;;;;5013039;28;20112;-76
2023/07/23 05:33:37;;;;;;;5.85;3.28;;;;;;;;;;5013520;28;20125;-76
2023/07/23 05:36:02;;;;;;;8.07;3.80;;;;;;;;;;5013657;28;20483;-77
2023/07/23 05:38:28;;;;;;;7.22;3.53;;;;;;;;;;5012283;28;20034;-76
2023/07/23 05:40:54;;;;;;;7.25;3.30;;;;;;;;;;5012333;28;20022;-74
2023/07/23 05:43:19;;;;;;;6.35;3.00;;;;;;;;;;5013324;28;20037;-77
2023/07/23 05:45:45;;;;;;;8.80;3.42;;;;;;;;;;5013130;28;20075;-76
2023/07/23 05:48:10;;;;;;;6.07;3.28;;;;;;;;;;5012203;28;20042;-75
2023/07/23 05:50:36;;;;;;;7.70;3.20;;;;;;;;;;4995926;28;20470;-75
2023/07/23 05:53:02;;;;;;;8.13;4.13;;;;;;;;;;5011966;28;20064;-75
2023/07/23 05:55:28;;;;;;;7.07;3.15;;;;;;;;;;5013157;28;20033;-75
2023/07/23 05:57:54;;;;;;;5.65;3.00;;;;;;;;;;5013282;28;20026;-76
2023/07/23 06:00:19;;;;;;;6.10;3.05;;;;;;;;;;5012287;28;20734;-77
2023/07/23 06:02:45;;;;;;;9.10;3.17;;;;;;;;;;5013133;28;20030;-77
2023/07/23 06:05:10;;;;;;;7.60;3.15;;;;;;;;;;5013118;28;20106;-76
2023/07/23 06:07:36;;;;;;;7.03;3.15;;;;;;;;;;5013581;28;20030;-75
2023/07/23 06:10:02;;;;;;;6.90;3.45;;;;;;;;;;4995214;28;20401;-75
2023/07/23 06:12:28;;;;;;;7.03;3.25;;;;;;;;;;5012797;28;20034;-76
2023/07/23 06:14:53;;;;;;;6.72;3.50;;;;;;;;;;5012586;28;20026;-76
2023/07/23 06:17:19;;;;;;;6.18;3.53;;;;;;;;;;5012824;28;20050;-75
2023/07/23 06:19:44;;;;;;;6.97;3.50;;;;;;;;;;5011704;28;20029;-75
2023/07/23 06:22:11;;;;;;;5.95;3.42;;;;;;;;;;5012686;28;20528;-76
2023/07/23 06:24:36;;;;;;;7.35;3.55;;;;;;;;;;5011277;28;20026;-76
2023/07/23 06:27:02;;;;;;;8.20;3.35;;;;;;;;;;5012725;28;20028;-76
2023/07/23 06:29:28;;;;;;;4.78;3.03;;;;;;;;;;5011142;28;20087;-76
2023/07/23 06:31:53;;;;;;;5.70;3.20;;;;;;;;;;5012755;28;20022;-76
2023/07/23 06:34:19;;;;;;;6.40;3.22;;;;;;;;;;5012768;28;20025;-75
2023/07/23 06:36:46;;;;;;;5.85;3.58;;;;;;;;;;5011796;28;20030;-74
2023/07/23 06:39:11;;;;;;;6.50;3.33;;;;;;;;;;5011802;28;20041;-76
2023/07/23 06:41:37;;;;;;;8.30;3.47;;;;;;;;;;5012953;28;20420;-74
2023/07/23 06:44:02;;;;;;;8.50;3.40;;;;;;;;;;5012643;28;20442;-77
2023/07/23 06:46:28;;;;;;;7.55;3.45;;;;;;;;;;5011252;28;20520;-76
2023/07/23 06:48:54;;;;;;;8.15;3.30;;;;;;;;;;5011187;28;20473;-75
2023/07/23 06:51:19;;;;;;;7.05;3.40;;;;;;;;;;5011110;28;20057;-76
2023/07/23 06:53:45;;;;;;;8.00;3.75;;;;;;;;;;5011001;28;20101;-77
2023/07/23 06:56:13;;;;;;;6.70;3.17;;;;;;;;;;5011612;28;20064;-75
2023/07/23 06:58:38;;;;;;;5.73;2.90;;;;;;;;;;5012089;28;20026;-77
2023/07/23 07:01:04;;;;;;;8.30;3.05;;;;;;;;;;4994736;28;20037;-77
2023/07/23 07:03:30;;;;;;;5.50;3.00;;;;;;;;;;5012126;28;20072;-76
2023/07/23 07:05:59;;;;;;;5.57;2.78;;;;;;;;;;5011001;28;20498;-74
2023/07/23 07:08:25;;;;;;;6.85;2.83;;;;;;;;;;5012218;28;20109;-75
2023/07/23 07:10:57;;;;;;;7.32;2.97;;;;;;;;;;5011953;28;20030;-75
2023/07/23 07:13:22;;;;;;;5.93;2.40;;;;;;;;;;5013172;28;20026;-75
2023/07/23 07:15:48;;;;;;;4.63;2.58;;;;;;;;;;5013259;28;20041;-73
2023/07/23 07:18:13;;;;;;;10.45;3.50;;;;;;;;;;5013746;28;20124;-74
2023/07/23 07:20:39;;;;;;;4.60;2.50;;;;;;;;;;4995035;28;20041;-75
2023/07/23 07:23:04;;;;;;;6.65;3.03;;;;;;;;;;4994602;28;20038;-77
2023/07/23 07:25:30;;;;;;;5.25;2.97;;;;;;;;;;5012024;28;20044;-75
2023/07/23 07:27:55;;;;;;;6.72;3.13;;;;;;;;;;5010833;28;20032;-76
2023/07/23 07:30:21;;;;;;;7.53;3.05;;;;;;;;;;5011926;28;20485;-77
2023/07/23 07:32:46;;;;;;;5.85;2.72;;;;;;;;;;5010639;28;20065;-76
2023/07/23 07:35:12;;;;;;;7.30;2.75;;;;;;;;;;5010921;28;20054;-77
2023/07/23 07:37:37;;;;;;;5.03;2.90;;;;;;;;;;5010773;28;20036;-76
2023/07/23 07:40:03;;;;;;;5.90;3.10;;;;;;;;;;5010712;28;20391;-76
2023/07/23 07:42:29;;;;;;;10.80;3.28;;;;;;;;;;5010980;28;20030;-75
2023/07/23 07:44:55;;;;;;;7.40;2.90;;;;;;;;;;5011579;28;20157;-75
2023/07/23 07:47:20;;;;;;;6.75;2.80;;;;;;;;;;5010763;28;20029;-77
2023/07/23 07:49:46;;;;;;;5.63;3.20;;;;;;;;;;4994366;28;20030;-75
2023/07/23 07:52:12;;;;;;;6.95;2.72;;;;;;;;;;5011683;28;20081;-75
2023/07/23 07:54:37;;;;;;;5.32;3.22;;;;;;;;;;5010372;28;20030;-76
2023/07/23 07:57:03;;;;;;;9.23;3.33;;;;;;;;;;5011897;28;20053;-77
2023/07/23 07:59:29;;;;;;;6.03;2.90;;;;;;;;;;4994305;28;20036;-77
2023/07/23 08:01:55;;;;;;;7.18;2.80;;;;;;;;;;5010581;28;20038;-76
2023/07/23 08:04:21;;;;;;;4.82;2.95;;;;;;;;;;5011619;28;20532;-75
2023/07/23 08:06:47;;;;;;;5.25;2.78;;;;;;;;;;5010705;28;20037;-77
2023/07/23 08:09:14;;;;;;;8.68;2.92;;;;;;;;;;5014257;28;20029;-76
2023/07/23 08:11:39;;;;;;;9.60;2.78;;;;;;;;;;5015471;28;20491;-76
2023/07/23 08:14:06;;;;;;;7.43;2.88;;;;;;;;;;5015388;28;20105;-76
2023/07/23 08:16:32;;;;;;;5.30;2.80;;;;;;;;;;5014023;28;20022;-75
2023/07/23 08:18:57;;;;;;;13.48;3.17;;;;;;;;;;5014180;28;20472;-76
2023/07/23 08:21:23;;;;;;;5.70;3.05;;;;;;;;;;5015053;28;20033;-76
2023/07/23 08:23:49;;;;;;;8.32;2.70;;;;;;;;;;5015039;28;20508;-75
2023/07/23 08:26:18;;;;;;;4.93;2.90;;;;;;;;;;5014469;28;20038;-76
2023/07/23 08:28:49;;;;;;;6.72;3.10;;;;;;;;;;5015526;28;20026;-76
2023/07/23 08:31:15;;;;;;;6.93;3.05;;;;;;;;;;5015707;28;20026;-75
2023/07/23 08:33:41;;;;;;;9.05;2.90;;;;;;;;;;5015939;28;20125;-76
2023/07/23 08:36:07;;;;;;;7.05;2.70;;;;;;;;;;5014696;28;20503;-76
2023/07/23 08:38:33;;;;;;;7.78;3.53;;;;;;;;;;4997183;28;20445;-76
2023/07/23 08:41:01;;;;;;;6.30;2.78;;;;;;;;;;5013580;28;20123;-74
2023/07/23 08:43:38;;;;;;;5.63;2.60;;;;;;;;;;5013344;28;20477;-75
2023/07/23 08:46:13;;;;;;;4.28;2.72;;;;;;;;;;5014453;28;20026;-77
2023/07/23 08:48:57;;;;;;;6.03;2.47;;;;;;;;;;5013314;28;20481;-78
2023/07/23 08:51:23;;;;;;;6.05;2.50;;;;;;;;;;5013235;28;20029;-76
2023/07/23 08:53:50;;;;;;;6.72;2.72;;;;;;;;;;5014608;28;20037;-75
2023/07/23 08:56:18;;;;;;;4.18;2.38;;;;;;;;;;5013396;28;20030;-75
2023/07/23 08:58:48;;;;;;;10.77;2.50;;;;;;;;;;4997132;28;20038;-76
2023/07/23 09:01:14;;;;;;;4.80;2.60;;;;;;;;;;5016163;28;20037;-77
2023/07/23 09:03:39;;;;;;;7.43;2.60;;;;;;;;;;5014351;28;20038;-75
2023/07/23 09:06:05;;;;;;;6.72;2.50;;;;;;;;;;5014649;28;20431;-75
2023/07/23 09:08:31;;;;;;;5.35;2.85;;;;;;;;;;5017153;28;20033;-74
2023/07/23 09:10:57;;;;;;;5.68;2.70;;;;;;;;;;5016683;28;20080;-75
2023/07/23 09:13:31;;;;;;;4.80;2.60;;;;;;;;;;5013111;28;20034;-75
2023/07/23 09:15:57;;;;;;;4.43;2.40;;;;;;;;;;5013819;28;20022;-76
2023/07/23 09:18:22;;;;;;;6.40;2.47;;;;;;;;;;5012647;28;20026;-76
2023/07/23 09:20:48;;;;;;;4.85;2.45;;;;;;;;;;5013916;28;20520;-75
2023/07/23 09:23:14;;;;;;;6.07;2.80;;;;;;;;;;5012705;28;20041;-77
2023/07/23 09:25:43;;;;;;;4.35;2.00;;;;;;;;;;5013601;28;20447;-76
2023/07/23 09:28:29;;;;;;;9.60;2.92;;;;;;;;;;5013563;28;20416;-76
2023/07/23 09:30:56;;;;;;;6.30;2.55;;;;;;;;;;5013526;28;20048;-76
2023/07/23 09:33:21;;;;;;;4.22;2.55;;;;;;;;;;5012120;28;20584;-75
2023/07/23 09:35:47;;;;;;;7.85;2.50;;;;;;;;;;5012143;28;20108;-77
2023/07/23 09:38:15;;;;;;;5.47;2.40;;;;;;;;;;5013646;28;20037;-76
2023/07/23 09:40:40;;;;;;;;;;;;;;;;;;5012753;28;20096;-75
2023/07/23 09:43:06;;;;;;;4.28;2.10;;;;;;;;;;5012180;28;20373;-75
2023/07/23 09:45:39;;;;;;;6.85;2.58;;;;;;;;;;4995973;28;20076;-75
2023/07/23 09:48:05;;;;;;;5.03;2.50;;;;;;;;;;5012696;28;20038;-75
2023/07/23 09:50:30;;;;;;;5.10;2.63;;;;;;;;;;5016654;28;20416;-75
2023/07/23 09:52:56;;;;;;;5.45;2.22;;;;;;;;;;5001532;28;20038;-75
2023/07/23 09:55:22;;;;;;;4.35;2.30;;;;;;;;;;5018266;28;20472;-74
2023/07/23 09:57:49;;;;;;;6.28;3.20;;;;;;;;;;4998075;28;20503;-75
2023/07/23 10:00:14;;;;;;;4.57;1.75;;;;;;;;;;5015334;28;20045;-75
2023/07/23 10:02:41;;;;;;;4.60;2.20;;;;;;;;;;5012697;28;20520;-76
2023/07/23 10:05:07;;;;;;;4.57;2.22;;;;;;;;;;5013272;28;20037;-74
2023/07/23 10:07:34;;;;;;;4.40;2.08;;;;;;;;;;4979838;28;20026;-75
2023/07/23 10:10:00;;;;;;;5.45;2.10;;;;;;;;;;5012951;28;20028;-77
2023/07/23 10:12:25;;;;;;;8.00;2.28;;;;;;;;;;5011954;28;20064;-74
2023/07/23 10:14:51;;;;;;;8.05;2.10;;;;;;;;;;5011762;28;20026;-77
2023/07/23 10:17:17;;;;;;;6.78;2.33;;;;;;;;;;4995440;28;20030;-77
2023/07/23 10:19:43;;;;;;;5.13;2.30;;;;;;;;;;5012945;28;20554;-75
2023/07/23 10:22:09;;;;;;;6.78;2.30;;;;;;;;;;5013246;28;20038;-76
2023/07/23 10:24:40;;;;;;;9.02;2.42;;;;;;;;;;4996079;28;20438;-76
2023/07/23 10:27:10;;;;;;;5.38;2.30;;;;;;;;;;5011740;28;20042;-76
2023/07/23 10:29:35;;;;;;;4.65;2.70;;;;;;;;;;5012110;28;20121;-77
2023/07/23 10:32:37;;;;;;;5.03;2.42;;;;;;;;;;5011488;28;20106;-75
2023/07/23 10:35:02;;;;;;;7.15;2.33;;;;;;;;;;4974061;28;20145;-74
2023/07/23 10:37:28;;;;;;;7.03;2.38;;;;;;;;;;5002963;28;20038;-76
2023/07/23 10:39:59;;;;;;;6.10;2.08;;;;;;;;;;5012601;28;20057;-76
2023/07/23 10:42:37;;;;;;;6.40;2.40;;;;;;;;;;5012518;28;20030;-74
2023/07/23 10:45:02;;;;;;;;;;;;;;;;;;5011833;28;20076;-74
2023/07/23 10:47:29;;;;;;;6.20;2.38;;;;;;;;;;5011519;28;19929;-75
2023/07/23 10:50:09;;;;;;;10.30;2.72;;;;;;;;;;5011239;28;20098;-76
2023/07/23 10:52:35;;;;;;;4.97;1.90;;;;;;;;;;5012699;28;20034;-75
2023/07/23 10:55:01;;;;;;;4.97;1.83;;;;;;;;;;5012559;28;20448;-76
2023/07/23 10:57:26;;;;;;;5.55;2.10;;;;;;;;;;5012572;28;20026;-77
2023/07/23 10:59:53;;;;;;;6.90;2.50;;;;;;;;;;5012633;28;20639;-74
2023/07/23 11:02:25;;;;;;;4.70;2.17;;;;;;;;;;5023146;23;20511;-80
2023/07/23 11:04:51;;;;;;;7.40;2.08;;;;;;;;;;4972070;28;20493;-78
2023/07/23 11:07:27;;;;;;;5.32;2.10;;;;;;;;;;4973085;28;20138;-79
2023/07/23 11:09:55;;;;;;;5.03;2.20;;;;;;;;;;4974273;28;20030;-79
2023/07/23 11:12:22;;;;;;;5.53;2.05;;;;;;;;;;4973054;28;20034;-78
2023/07/23 11:14:48;;;;;;;8.68;2.10;;;;;;;;;;4974012;28;20043;-79
2023/07/23 11:17:16;;;;;;;3.90;2.10;;;;;;;;;;4993549;28;20019;-78
2023/07/23 11:19:45;;;;;;;4.72;2.20;;;;;;;;;;4978524;28;20042;-79
2023/07/23 11:22:14;;;;;;;4.55;2.63;;;;;;;;;;4979020;28;20049;-80
2023/07/23 11:24:40;;;;;;;7.82;2.50;;;;;;;;;;4977593;28;20074;-79
2023/07/23 11:27:05;;;;;;;5.00;2.97;;;;;;;;;;4976450;28;20026;-80
2023/07/23 11:29:34;;;;;;;3.85;2.08;;;;;;;;;;4973389;28;20041;-77
2023/07/23 11:32:00;;;;;;;6.15;2.60;;;;;;;;;;4974845;28;20035;-77
2023/07/23 11:34:31;;;;;;;5.93;2.58;;;;;;;;;;4973357;28;20023;-79
2023/07/23 11:36:59;;;;;;;12.05;2.47;;;;;;;;;;4972891;28;20062;-78
2023/07/23 11:39:25;;;;;;;8.98;2.55;;;;;;;;;;4972793;28;20085;-80
2023/07/23 11:41:51;;;;;;;8.00;2.33;;;;;;;;;;4990563;28;20033;-77
2023/07/23 11:44:17;;;;;;;14.38;3.08;;;;;;;;;;4978084;28;20027;-77
2023/07/23 11:46:42;;;;;;;15.10;2.92;;;;;;;;;;4978789;28;20441;-78
2023/07/23 11:49:09;;;;;;;11.90;2.90;;;;;;;;;;4978971;28;20561;-79
2023/07/23 11:51:37;;;;;;;12.30;2.95;;;;;;;;;;4977270;28;20026;-78
2023/07/23 11:54:09;;;;;;;8.48;2.10;;;;;;;;;;4993395;28;20031;-78
2023/07/23 11:56:36;;;;;;;7.07;2.17;;;;;;;;;;4977773;28;20537;-80
2023/07/23 11:59:03;;;;;;;5.05;2.33;;;;;;;;;;4960947;28;20027;-79
2023/07/23 12:01:31;;;;;;;5.65;1.98;;;;;;;;;;4977839;28;20037;-79
2023/07/23 12:03:57;;;;;;;;;;;;;;;;;;4978093;28;20037;-79
2023/07/23 12:06:22;;;;;;;6.30;2.38;;;;;;;;;;4977476;28;20351;-79
2023/07/23 12:08:51;;;;;;;6.43;2.38;;;;;;;;;;4978226;28;20031;-78
2023/07/23 12:11:17;;;;;;;6.18;2.50;;;;;;;;;;4945284;28;20037;-80
2023/07/23 12:13:43;;;;;;;4.03;2.00;;;;;;;;;;4977162;28;20027;-78
2023/07/23 12:16:13;;;;;;;4.07;2.20;;;;;;;;;;4976197;28;20026;-79
2023/07/23 12:18:43;;;;;;;8.68;2.55;;;;;;;;;;4975378;28;20031;-79
2023/07/23 12:21:08;;;;;;;4.90;2.20;;;;;;;;;;4977703;28;20133;-79
2023/07/23 12:23:42;;;;;;;5.55;2.80;;;;;;;;;;4980493;28;20101;-79
2023/07/23 12:26:09;;;;;;;6.00;2.10;;;;;;;;;;4980743;28;20035;-78
2023/07/23 12:28:34;;;;;;;6.40;2.17;;;;;;;;;;4998563;28;20026;-79
2023/07/23 12:31:00;;;;;;;3.97;2.03;;;;;;;;;;4996999;28;20027;-79
2023/07/23 12:33:25;;;;;;;5.47;2.38;;;;;;;;;;4998984;28;20042;-78
2023/07/23 12:35:51;;;;;;;6.93;2.33;;;;;;;;;;4995241;28;20054;-80
2023/07/23 12:38:17;;;;;;;4.97;2.17;;;;;;;;;;4993851;28;20030;-80
2023/07/23 12:40:42;;;;;;;4.25;1.95;;;;;;;;;;4980690;28;20042;-78
2023/07/23 12:43:08;;;;;;;5.28;2.17;;;;;;;;;;4977452;28;20059;-79
2023/07/23 12:45:36;;;;;;;4.85;2.08;;;;;;;;;;4975764;28;20031;-78
2023/07/23 12:48:02;;;;;;;5.97;2.63;;;;;;;;;;4991687;28;20512;-78
2023/07/23 12:50:28;;;;;;;4.63;2.50;;;;;;;;;;4959156;28;20058;-79
2023/07/23 12:52:54;;;;;;;3.58;2.00;;;;;;;;;;4958582;28;20065;-80
2023/07/23 12:55:19;;;;;;;5.35;1.95;;;;;;;;;;4976288;28;20027;-79
2023/07/23 12:57:45;;;;;;;6.25;2.40;;;;;;;;;;4977184;28;20023;-79
2023/07/23 13:00:10;;;;;;;3.72;2.05;;;;;;;;;;4976758;28;20029;-78
2023/07/23 13:02:36;;;;;;;4.35;2.30;;;;;;;;;;4975826;28;20081;-78
2023/07/23 13:05:01;;;;;;;4.72;2.10;;;;;;;;;;4990868;28;20114;-79
2023/07/23 13:07:27;;;;;;;4.93;1.92;;;;;;;;;;4991689;28;20043;-79
2023/07/23 13:09:58;;;;;;;4.20;1.95;;;;;;;;;;4976535;28;20534;-79
2023/07/23 13:12:24;;;;;;;4.00;2.00;;;;;;;;;;4974802;28;20105;-79
2023/07/23 13:14:49;;;;;;;6.47;2.00;;;;;;;;;;4975662;28;20033;-79
2023/07/23 13:17:15;;;;;;;4.05;1.90;;;;;;;;;;4981578;28;20039;-78
2023/07/23 13:19:40;;;;;;;6.22;2.10;;;;;;;;;;4983683;28;20046;-79
2023/07/23 13:22:12;;;;;;;5.07;2.03;;;;;;;;;;4988557;28;20077;-80
2023/07/23 13:24:38;;;;;;;3.03;1.63;;;;;;;;;;4981363;28;20093;-80
2023/07/23 13:27:04;;;;;;;3.95;1.90;;;;;;;;;;4978485;28;20038;-80
2023/07/23 13:29:29;;;;;;;3.47;1.88;;;;;;;;;;4974459;28;20043;-80
2023/07/23 13:31:55;;;;;;;3.60;1.70;;;;;;;;;;4975758;28;20416;-80
2023/07/23 13:34:31;;;;;;;5.85;2.25;;;;;;;;;;4974914;28;20042;-81
2023/07/23 13:36:57;;;;;;;3.67;1.90;;;;;;;;;;4990230;28;20026;-80
2023/07/23 13:39:22;;;;;;;6.60;2.50;;;;;;;;;;4977309;28;20043;-82
2023/07/23 13:41:48;;;;;;;5.05;1.85;;;;;;;;;;4978535;28;20031;-80
2023/07/23 13:44:16;;;;;;;7.40;2.50;;;;;;;;;;4974621;28;20102;-80
2023/07/23 13:46:41;;;;;;;6.53;2.50;;;;;;;;;;4958138;28;20093;-81
2023/07/23 13:49:07;;;;;;;8.93;2.88;;;;;;;;;;4975061;28;20065;-81
2023/07/23 13:51:32;;;;;;;5.60;2.40;;;;;;;;;;4973761;28;20033;-80
2023/07/23 13:53:58;;;;;;;5.13;2.30;;;;;;;;;;4990002;28;20034;-79
2023/07/23 13:56:23;;;;;;;6.00;2.17;;;;;;;;;;4975114;28;20441;-82
2023/07/23 13:58:49;;;;;;;6.40;2.70;;;;;;;;;;4974701;28;20057;-81
2023/07/23 14:01:14;;;;;;;6.90;2.50;;;;;;;;;;4973714;28;20369;-81
2023/07/23 14:03:40;;;;;;;5.70;2.78;;;;;;;;;;4989934;28;20402;-81
2023/07/23 14:06:06;;;;;;;16.52;3.13;;;;;;;;;;4956679;28;20293;-80
2023/07/23 14:08:33;;;;;;;7.57;2.75;;;;;;;;;;4957463;28;20413;-81
2023/07/23 14:10:58;;;;;;;6.82;3.28;;;;;;;;;;4989495;28;20030;-80
2023/07/23 14:13:26;;;;;;;5.68;2.72;;;;;;;;;;4989550;28;20027;-80
2023/07/23 14:15:52;;;;;;;6.50;2.45;;;;;;;;;;4957386;28;20054;-80
2023/07/23 14:18:18;;;;;;;10.65;2.42;;;;;;;;;;4989157;28;20505;-80
2023/07/23 14:20:43;;;;;;;5.13;2.53;;;;;;;;;;4957341;28;20504;-81
2023/07/23 14:23:09;;;;;;;4.70;2.38;;;;;;;;;;4988943;28;20505;-80
2023/07/23 14:25:35;;;;;;;5.80;2.47;;;;;;;;;;4989064;28;20065;-81
2023/07/23 14:28:04;;;;;;;10.52;2.42;;;;;;;;;;4957387;28;20070;-80
2023/07/23 14:30:29;;;;;;;5.22;2.25;;;;;;;;;;4956870;28;20030;-81
2023/07/23 14:32:55;;;;;;;4.78;2.10;;;;;;;;;;4989345;28;20374;-81
2023/07/23 14:35:20;;;;;;;7.15;2.90;;;;;;;;;;4989170;28;20118;-81
2023/07/23 14:37:46;;;;;;;7.55;2.80;;;;;;;;;;4974016;28;20437;-79